createdAt,value
2023-05-16T00:01:42.132Z,96889.78
2023-05-16T00:03:45.513Z,96887.16
2023-05-16T00:05:48.450Z,96897.81
2023-05-16T00:07:51.041Z,96890.88
2023-05-16T00:09:53.657Z,96881.25
2023-05-16T00:11:56.322Z,96892.56
2023-05-16T00:13:58.861Z,96884.63
2023-05-16T00:16:05.093Z,96879.41
2023-05-16T00:18:07.759Z,96885.41
2023-05-16T00:20:12.011Z,96883.69
2023-05-16T00:22:14.568Z,96882.88
2023-05-16T00:24:17.176Z,96884.63
2023-05-16T00:26:22.227Z,96882.03
2023-05-16T00:28:24.919Z,96879.25
2023-05-16T00:30:27.712Z,96882.03
2023-05-16T00:32:32.648Z,96878.56
2023-05-16T00:34:35.454Z,96879.56
2023-05-16T00:36:38.064Z,96873.41
2023-05-16T00:38:40.622Z,96881.25
2023-05-16T00:40:43.170Z,96878.72
2023-05-16T00:42:45.766Z,96881.34
2023-05-16T00:44:48.596Z,96881.41
2023-05-16T00:46:51.768Z,96883.09
2023-05-16T00:48:55.798Z,96878.72
2023-05-16T00:50:58.582Z,96875.25
2023-05-16T00:53:01.198Z,96881.25
2023-05-16T00:55:04.468Z,96879.75
2023-05-16T00:57:07.718Z,96881.50
2023-05-16T00:59:11.036Z,96874.50
2023-05-16T01:01:14.310Z,96875.41
2023-05-16T01:03:17.190Z,96869.34
2023-05-16T01:05:21.601Z,96872.72
2023-05-16T01:07:24.710Z,96875.50
2023-05-16T01:09:27.302Z,96873.66
2023-05-16T01:11:35.361Z,96870.34
2023-05-16T01:13:45.748Z,96874.66
2023-05-16T01:15:55.209Z,96876.53
2023-05-16T01:18:04.621Z,96873.06
2023-05-16T01:20:15.354Z,96868.28
2023-05-16T01:22:32.067Z,96860.69
2023-05-16T01:24:40.567Z,96867.84
2023-05-16T01:26:46.068Z,96869.69
2023-05-16T01:28:49.999Z,96874.69
2023-05-16T01:30:52.728Z,96869.31
2023-05-16T01:32:55.347Z,96864.88
2023-05-16T01:34:57.972Z,96871.13
2023-05-16T01:37:10.218Z,96870.78
2023-05-16T01:39:19.787Z,96869.81
2023-05-16T01:41:28.836Z,96868.56
2023-05-16T01:43:36.468Z,96870.16
2023-05-16T01:45:45.094Z,96872.47
2023-05-16T01:47:56.511Z,96875.91
2023-05-16T01:50:04.889Z,96874.06
2023-05-16T01:52:12.577Z,96879.16
2023-05-16T01:54:18.053Z,96875.63
2023-05-16T01:56:21.657Z,96879.91
2023-05-16T01:58:29.520Z,96879.81
2023-05-16T02:00:33.846Z,96881.63
2023-05-16T02:02:36.459Z,96881.28
2023-05-16T02:04:39.082Z,96873.63
2023-05-16T02:06:41.941Z,96887.06
2023-05-16T02:08:44.798Z,96881.47
2023-05-16T02:10:48.565Z,96879.06
2023-05-16T02:12:51.828Z,96876.34
2023-05-16T02:14:54.376Z,96875.41
2023-05-16T02:16:58.640Z,96875.41
2023-05-16T02:19:01.263Z,96876.25
2023-05-16T02:21:03.915Z,96872.09
2023-05-16T02:23:06.527Z,96878.41
2023-05-16T02:25:10.111Z,96877.41
2023-05-16T02:27:12.659Z,96884.19
2023-05-16T02:29:16.488Z,96887.09
2023-05-16T02:31:27.449Z,96873.84
2023-05-16T02:33:31.592Z,96878.88
2023-05-16T02:35:34.197Z,96886.28
2023-05-16T02:37:36.962Z,96887.16
2023-05-16T02:39:39.607Z,96892.16
2023-05-16T02:41:42.170Z,96887.75
2023-05-16T02:43:46.925Z,96882.41
2023-05-16T02:45:49.739Z,96886.69
2023-05-16T02:47:52.402Z,96881.38
2023-05-16T02:49:59.340Z,96881.53
2023-05-16T02:52:05.247Z,96891.84
2023-05-16T02:54:09.866Z,96877.00
2023-05-16T02:56:12.620Z,96877.78
2023-05-16T02:58:15.265Z,96870.75
2023-05-16T03:00:18.861Z,96879.38
2023-05-16T03:02:22.180Z,96881.06
2023-05-16T03:04:25.376Z,96880.03
2023-05-16T03:06:30.280Z,96877.25
2023-05-16T03:08:33.067Z,96882.50
2023-05-16T03:10:35.674Z,96881.59
2023-05-16T03:12:38.205Z,96882.34
2023-05-16T03:14:40.819Z,96881.50
2023-05-16T03:16:43.993Z,96885.72
2023-05-16T03:18:46.674Z,96878.81
2023-05-16T03:20:49.312Z,96877.19
2023-05-16T03:22:53.324Z,96875.50
2023-05-16T03:24:56.349Z,96875.50
2023-05-16T03:26:59.287Z,96879.88
2023-05-16T03:29:01.820Z,96873.22
2023-05-16T03:31:04.466Z,96879.38
2023-05-16T03:33:07.118Z,96882.75
2023-05-16T03:35:11.957Z,96879.28
2023-05-16T03:37:16.070Z,96881.75
2023-05-16T03:39:20.031Z,96878.19
2023-05-16T03:41:22.783Z,96884.19
2023-05-16T03:43:25.398Z,96876.34
2023-05-16T03:45:28.253Z,96884.97
2023-05-16T03:47:31.997Z,96877.88
2023-05-16T03:49:34.827Z,96878.72
2023-05-16T03:51:37.400Z,96882.09
2023-05-16T03:53:39.984Z,96889.00
2023-05-16T03:55:44.035Z,96882.97
2023-05-16T03:57:47.838Z,96889.78
2023-05-16T03:59:50.500Z,96891.53
2023-05-16T04:01:53.112Z,96891.53
2023-05-16T04:03:55.792Z,96901.97
2023-05-16T04:05:58.715Z,96898.41
2023-05-16T04:08:01.290Z,96894.84
2023-05-16T04:10:04.367Z,96900.09
2023-05-16T04:12:11.946Z,96908.78
2023-05-16T04:14:15.468Z,96903.56
2023-05-16T04:16:18.046Z,96904.41
2023-05-16T04:18:20.862Z,96908.69
2023-05-16T04:20:23.456Z,96900.84
2023-05-16T04:22:26.086Z,96906.94
2023-05-16T04:24:29.032Z,96899.09
2023-05-16T04:26:31.873Z,96898.22
2023-05-16T04:28:35.868Z,96903.47
2023-05-16T04:30:38.533Z,96900.84
2023-05-16T04:32:41.245Z,96903.47
2023-05-16T04:34:45.304Z,96904.31
2023-05-16T04:36:47.858Z,96899.09
2023-05-16T04:38:50.849Z,96897.31
2023-05-16T04:40:53.514Z,96897.31
2023-05-16T04:42:56.107Z,96897.31
2023-05-16T04:45:00.011Z,96895.63
2023-05-16T04:47:02.755Z,96902.47
2023-05-16T04:49:05.498Z,96898.91
2023-05-16T04:51:08.324Z,96899.00
2023-05-16T04:53:10.929Z,96894.72
2023-05-16T04:55:13.480Z,96905.09
2023-05-16T04:57:16.036Z,96901.63
2023-05-16T04:59:18.610Z,96899.00
2023-05-16T05:01:22.583Z,96901.78
2023-05-16T05:03:25.261Z,96911.41
2023-05-16T05:05:28.101Z,96913.16
2023-05-16T05:07:31.187Z,96914.00
2023-05-16T05:09:33.958Z,96916.53
2023-05-16T05:11:36.860Z,96915.63
2023-05-16T05:13:39.436Z,96919.06
2023-05-16T05:15:42.073Z,96912.09
2023-05-16T05:17:46.025Z,96915.56
2023-05-16T05:19:49.130Z,96919.03
2023-05-16T05:21:51.703Z,96916.41
2023-05-16T05:23:54.225Z,96925.09
2023-05-16T05:25:56.912Z,96923.41
2023-05-16T05:27:59.466Z,96926.94
2023-05-16T05:30:02.039Z,96932.16
2023-05-16T05:32:05.048Z,96926.94
2023-05-16T05:34:09.043Z,96926.03
2023-05-16T05:36:12.345Z,96924.31
2023-05-16T05:38:14.915Z,96933.00
2023-05-16T05:40:17.703Z,96933.00
2023-05-16T05:42:20.331Z,96931.25
2023-05-16T05:44:22.917Z,96926.03
2023-05-16T05:46:26.318Z,96926.03
2023-05-16T05:48:29.932Z,96925.09
2023-05-16T05:50:34.096Z,96927.69
2023-05-16T05:52:36.667Z,96924.16
2023-05-16T05:54:39.246Z,96922.28
2023-05-16T05:56:42.161Z,96925.84
2023-05-16T05:58:45.358Z,96931.94
2023-05-16T06:00:47.913Z,96938.00
2023-05-16T06:02:50.932Z,96937.09
2023-05-16T06:04:53.628Z,96932.75
2023-05-16T06:06:57.732Z,96937.09
2023-05-16T06:09:00.471Z,96939.69
2023-05-16T06:11:03.045Z,96943.19
2023-05-16T06:13:05.623Z,96945.72
2023-05-16T06:15:09.556Z,96938.75
2023-05-16T06:17:12.286Z,96939.53
2023-05-16T06:19:16.465Z,96945.72
2023-05-16T06:21:19.080Z,96951.75
2023-05-16T06:23:23.306Z,96956.09
2023-05-16T06:25:26.101Z,96960.38
2023-05-16T06:27:28.883Z,96959.56
2023-05-16T06:29:31.509Z,96961.25
2023-05-16T06:31:34.213Z,96961.25
2023-05-16T06:33:36.852Z,96961.25
2023-05-16T06:35:40.652Z,96957.75
2023-05-16T06:37:43.343Z,96958.53
2023-05-16T06:39:47.280Z,96957.69
2023-05-16T06:41:49.846Z,96957.69
2023-05-16T06:43:52.636Z,96956.84
2023-05-16T06:45:55.221Z,96954.31
2023-05-16T06:47:58.106Z,96953.38
2023-05-16T06:50:00.927Z,96952.44
2023-05-16T06:52:03.725Z,96947.22
2023-05-16T06:54:06.435Z,96948.06
2023-05-16T06:56:10.526Z,96947.22
2023-05-16T06:58:13.239Z,96957.69
2023-05-16T07:00:16.899Z,96955.84
2023-05-16T07:02:19.523Z,96950.53
2023-05-16T07:04:22.167Z,96950.44
2023-05-16T07:06:24.804Z,96953.91
2023-05-16T07:08:27.497Z,96954.69
2023-05-16T07:10:30.103Z,96957.22
2023-05-16T07:12:34.033Z,96956.31
2023-05-16T07:14:36.649Z,96951.88
2023-05-16T07:16:39.388Z,96954.50
2023-05-16T07:18:42.279Z,96953.69
2023-05-16T07:20:45.891Z,96963.22
2023-05-16T07:22:48.485Z,96960.59
2023-05-16T07:24:53.228Z,96954.50
2023-05-16T07:26:55.837Z,96957.97
2023-05-16T07:28:59.969Z,96960.50
2023-05-16T07:31:02.626Z,96964.84
2023-05-16T07:33:05.910Z,96961.28
2023-05-16T07:35:09.597Z,96955.19
2023-05-16T07:37:13.068Z,96965.75
2023-05-16T07:39:16.210Z,96969.22
2023-05-16T07:41:18.968Z,96972.81
2023-05-16T07:43:21.563Z,96980.75
2023-05-16T07:45:25.838Z,96979.84
2023-05-16T07:47:29.167Z,96982.47
2023-05-16T07:49:31.860Z,96978.91
2023-05-16T07:51:34.465Z,96984.16
2023-05-16T07:53:37.128Z,96985.00
2023-05-16T07:55:39.785Z,96991.06
2023-05-16T07:57:43.685Z,96984.06
2023-05-16T07:59:46.931Z,96992.78
2023-05-16T08:01:51.380Z,96993.63
2023-05-16T08:03:54.051Z,96983.97
2023-05-16T08:05:56.716Z,96977.91
2023-05-16T08:07:59.518Z,96985.78
2023-05-16T08:10:02.134Z,96980.53
2023-05-16T08:12:05.124Z,96987.53
2023-05-16T08:14:07.995Z,96984.91
2023-05-16T08:16:11.733Z,96980.53
2023-05-16T08:18:16.657Z,96990.06
2023-05-16T08:20:19.544Z,96989.22
2023-05-16T08:22:22.160Z,96992.69
2023-05-16T08:24:24.769Z,96993.53
2023-05-16T08:26:27.486Z,96988.41
2023-05-16T08:28:30.193Z,96991.84
2023-05-16T08:30:32.784Z,96999.78
2023-05-16T08:32:35.670Z,97000.72
2023-05-16T08:34:39.667Z,97005.25
2023-05-16T08:36:42.235Z,97012.25
2023-05-16T08:38:44.965Z,97014.00
2023-05-16T08:40:47.852Z,97018.44
2023-05-16T08:42:50.601Z,97014.94
2023-05-16T08:44:53.311Z,97021.88
2023-05-16T08:46:56.274Z,97026.19
2023-05-16T08:49:01.198Z,97021.88
2023-05-16T08:51:07.516Z,97028.03
2023-05-16T08:53:11.492Z,97027.19
2023-05-16T08:55:16.158Z,97035.03
2023-05-16T08:57:19.384Z,97027.19
2023-05-16T08:59:22.172Z,97034.94
2023-05-16T09:01:25.077Z,97034.94
2023-05-16T09:03:28.975Z,97028.88
2023-05-16T09:05:32.062Z,97037.56
2023-05-16T09:07:36.089Z,97033.53
2023-05-16T09:09:38.840Z,97034.66
2023-05-16T09:11:41.466Z,97041.59
2023-05-16T09:13:44.670Z,97038.97
2023-05-16T09:15:47.255Z,97033.66
2023-05-16T09:17:50.010Z,97037.03
2023-05-16T09:19:59.880Z,97034.41
2023-05-16T09:22:03.693Z,97029.19
2023-05-16T09:24:09.487Z,97031.72
2023-05-16T09:26:12.959Z,97034.25
2023-05-16T09:28:15.674Z,97039.50
2023-05-16T09:30:22.637Z,97040.88
2023-05-16T09:32:25.816Z,97039.81
2023-05-16T09:34:28.435Z,97039.81
2023-05-16T09:36:32.934Z,97042.34
2023-05-16T09:38:35.526Z,97039.75
2023-05-16T09:40:42.475Z,97051.06
2023-05-16T09:42:45.106Z,97048.38
2023-05-16T09:44:48.720Z,97057.91
2023-05-16T09:46:51.511Z,97054.44
2023-05-16T09:48:54.236Z,97057.91
2023-05-16T09:51:03.390Z,97050.91
2023-05-16T09:53:07.018Z,97063.13
2023-05-16T09:55:10.286Z,97059.59
2023-05-16T09:57:14.221Z,97061.44
2023-05-16T09:59:17.120Z,97056.38
2023-05-16T10:01:19.787Z,97049.50
2023-05-16T10:03:22.874Z,97051.19
2023-05-16T10:05:27.608Z,97045.50
2023-05-16T10:07:33.727Z,97056.84
2023-05-16T10:09:40.722Z,97057.13
2023-05-16T10:11:44.126Z,97056.13
2023-05-16T10:13:53.094Z,97050.06
2023-05-16T10:15:58.012Z,97049.19
2023-05-16T10:18:03.606Z,97047.44
2023-05-16T10:20:09.254Z,97043.06
2023-05-16T10:22:14.072Z,97049.16
2023-05-16T10:24:24.958Z,97049.16
2023-05-16T10:26:28.032Z,97049.16
2023-05-16T10:28:31.097Z,97050.81
2023-05-16T10:30:36.073Z,97048.22
2023-05-16T10:32:41.914Z,97053.59
2023-05-16T10:34:47.405Z,97047.44
2023-05-16T10:36:50.626Z,97054.38
2023-05-16T10:38:53.966Z,97051.75
2023-05-16T10:40:57.551Z,97047.34
2023-05-16T10:43:01.970Z,97048.22
2023-05-16T10:45:16.874Z,97046.53
2023-05-16T10:47:21.516Z,97047.16
2023-05-16T10:49:25.820Z,97049.59
2023-05-16T10:51:36.748Z,97050.38
2023-05-16T10:53:39.524Z,97051.50
2023-05-16T10:55:46.249Z,97051.59
2023-05-16T10:57:48.939Z,97049.75
2023-05-16T10:59:53.844Z,97052.22
2023-05-16T11:01:57.534Z,97054.66
2023-05-16T11:04:10.336Z,97058.97
2023-05-16T11:06:13.814Z,97055.44
2023-05-16T11:08:16.497Z,97060.69
2023-05-16T11:10:19.096Z,97057.13
2023-05-16T11:12:22.012Z,97060.69
2023-05-16T11:14:26.375Z,97053.69
2023-05-16T11:16:29.705Z,97054.44
2023-05-16T11:18:34.050Z,97058.75
2023-05-16T11:20:39.194Z,97061.28
2023-05-16T11:22:42.238Z,97062.06
2023-05-16T11:24:57.034Z,97066.44
2023-05-16T11:27:00.958Z,97066.38
2023-05-16T11:29:04.655Z,97062.06
2023-05-16T11:31:07.359Z,97072.53
2023-05-16T11:33:10.040Z,97069.91
2023-05-16T11:35:15.126Z,97061.22
2023-05-16T11:37:21.023Z,97058.66
2023-05-16T11:39:25.083Z,97051.75
2023-05-16T11:41:27.689Z,97054.28
2023-05-16T11:43:30.394Z,97055.97
2023-05-16T11:45:32.994Z,97054.22
2023-05-16T11:47:38.004Z,97056.84
2023-05-16T11:49:41.519Z,97054.13
2023-05-16T11:51:44.366Z,97053.19
2023-05-16T11:53:50.048Z,97055.81
2023-05-16T11:55:55.680Z,97057.53
2023-05-16T11:57:59.343Z,97056.50
2023-05-16T12:00:06.460Z,97059.97
2023-05-16T12:02:09.832Z,97058.22
2023-05-16T12:04:14.136Z,97064.28
2023-05-16T12:06:17.108Z,97059.91
2023-05-16T12:08:20.612Z,97066.91
2023-05-16T12:10:24.597Z,97062.44
2023-05-16T12:12:27.237Z,97067.66
2023-05-16T12:14:32.507Z,97067.66
2023-05-16T12:16:37.014Z,97076.38
2023-05-16T12:18:43.189Z,97074.63
2023-05-16T12:20:46.361Z,97077.31
2023-05-16T12:22:48.976Z,97077.31
2023-05-16T12:24:51.545Z,97086.06
2023-05-16T12:26:55.476Z,97077.44
2023-05-16T12:29:00.931Z,97078.38
2023-05-16T12:31:03.656Z,97076.75
2023-05-16T12:33:10.618Z,97069.91
2023-05-16T12:35:13.928Z,97079.53
2023-05-16T12:37:16.608Z,97075.22
2023-05-16T12:39:19.743Z,97082.22
2023-05-16T12:41:23.727Z,97077.00
2023-05-16T12:43:28.643Z,97078.81
2023-05-16T12:45:32.333Z,97084.22
2023-05-16T12:47:38.000Z,97078.22
2023-05-16T12:49:45.766Z,97080.75
2023-05-16T12:51:52.168Z,97081.59
2023-05-16T12:54:05.601Z,97083.44
2023-05-16T12:56:12.938Z,97089.53
2023-05-16T12:58:16.472Z,97093.91
2023-05-16T13:00:21.798Z,97093.06
2023-05-16T13:02:24.564Z,97089.63
2023-05-16T13:04:27.203Z,97093.91
2023-05-16T13:06:36.706Z,97095.66
2023-05-16T13:08:47.829Z,97092.16
2023-05-16T13:10:50.974Z,97095.06
2023-05-16T13:12:53.893Z,97102.78
2023-05-16T13:14:56.883Z,97096.59
2023-05-16T13:17:00.802Z,97106.22
2023-05-16T13:19:03.695Z,97108.75
2023-05-16T13:21:06.838Z,97108.66
2023-05-16T13:23:09.428Z,97101.84
2023-05-16T13:25:12.781Z,97109.59
2023-05-16T13:27:17.363Z,97116.47
2023-05-16T13:29:19.925Z,97108.66
2023-05-16T13:31:23.187Z,97112.91
2023-05-16T13:33:27.332Z,97113.00
2023-05-16T13:35:30.254Z,97111.28
2023-05-16T13:37:33.009Z,97109.44
2023-05-16T13:39:36.158Z,97113.69
2023-05-16T13:41:40.327Z,97113.69
2023-05-16T13:43:42.939Z,97118.00
2023-05-16T13:45:45.624Z,97116.38
2023-05-16T13:47:48.449Z,97113.69
2023-05-16T13:49:52.486Z,97109.25
2023-05-16T13:51:55.177Z,97113.47
2023-05-16T13:53:57.755Z,97102.91
2023-05-16T13:56:00.643Z,97115.91
2023-05-16T13:58:03.277Z,97112.69
2023-05-16T14:00:35.373Z,97125.84
2023-05-16T14:02:34.829Z,97125.16
2023-05-16T14:04:37.467Z,97133.38
2023-05-16T14:06:41.496Z,97126.44
2023-05-16T14:08:44.109Z,97140.53
2023-05-16T14:10:46.748Z,97136.28
2023-05-16T14:12:50.661Z,97139.13
2023-05-16T14:14:54.708Z,97138.06
2023-05-16T14:16:57.293Z,97146.75
2023-05-16T14:19:00.004Z,97146.13
2023-05-16T14:21:02.636Z,97147.81
2023-05-16T14:23:06.923Z,97150.38
2023-05-16T14:25:10.034Z,97142.53
2023-05-16T14:27:12.675Z,97149.44
2023-05-16T14:29:15.326Z,97144.13
2023-05-16T14:31:17.964Z,97152.97
2023-05-16T14:33:20.677Z,97148.56
2023-05-16T14:35:23.365Z,97148.66
2023-05-16T14:37:25.991Z,97149.50
2023-05-16T14:39:32.420Z,97154.66
2023-05-16T14:41:35.022Z,97156.41
2023-05-16T14:43:38.452Z,97154.66
2023-05-16T14:45:41.587Z,97159.97
2023-05-16T14:47:44.649Z,97166.88
2023-05-16T14:49:47.396Z,97165.97
2023-05-16T14:51:50.867Z,97165.97
2023-05-16T14:53:53.473Z,97170.34
2023-05-16T14:55:57.534Z,97174.69
2023-05-16T14:58:00.376Z,97181.69
2023-05-16T15:00:03.312Z,97185.19
2023-05-16T15:02:06.577Z,97178.19
2023-05-16T15:04:09.341Z,97183.44
2023-05-16T15:06:11.968Z,97186.97
2023-05-16T15:08:14.589Z,97186.97
2023-05-16T15:10:19.672Z,97176.59
2023-05-16T15:12:23.772Z,97184.38
2023-05-16T15:14:27.095Z,97186.97
2023-05-16T15:16:30.778Z,97187.81
2023-05-16T15:18:33.595Z,97185.97
2023-05-16T15:20:36.226Z,97191.22
2023-05-16T15:22:40.473Z,97185.91
2023-05-16T15:24:43.131Z,97184.13
2023-05-16T15:26:45.759Z,97191.97
2023-05-16T15:28:50.295Z,97190.22
2023-05-16T15:30:54.449Z,97189.38
2023-05-16T15:32:57.110Z,97185.00
2023-05-16T15:34:59.715Z,97193.66
2023-05-16T15:37:02.489Z,97188.50
2023-05-16T15:39:05.610Z,97192.91
2023-05-16T15:41:24.003Z,97189.38
2023-05-16T15:43:31.714Z,97184.13
2023-05-16T15:45:39.908Z,97188.38
2023-05-16T15:47:43.104Z,97188.25
2023-05-16T15:49:45.736Z,97195.22
2023-05-16T15:51:48.431Z,97190.78
2023-05-16T15:53:51.170Z,97192.53
2023-05-16T15:55:53.790Z,97185.53
2023-05-16T15:57:57.381Z,97188.09
2023-05-16T16:00:00.085Z,97182.00
2023-05-16T16:02:05.446Z,97198.53
2023-05-16T16:04:08.687Z,97192.38
2023-05-16T16:06:11.311Z,97189.75
2023-05-16T16:08:13.963Z,97192.53
2023-05-16T16:10:16.595Z,97194.31
2023-05-16T16:12:19.228Z,97187.38
2023-05-16T16:14:21.848Z,97196.09
2023-05-16T16:16:24.594Z,97189.22
2023-05-16T16:18:28.645Z,97197.06
2023-05-16T16:20:31.268Z,97191.13
2023-05-16T16:22:33.884Z,97195.53
2023-05-16T16:24:36.562Z,97189.66
2023-05-16T16:26:39.236Z,97196.59
2023-05-16T16:28:41.874Z,97192.28
2023-05-16T16:30:47.238Z,97196.59
2023-05-16T16:32:49.875Z,97194.75
2023-05-16T16:34:53.832Z,97194.19
2023-05-16T16:36:56.396Z,97187.97
2023-05-16T16:38:59.351Z,97191.44
2023-05-16T16:41:01.978Z,97193.13
2023-05-16T16:43:06.043Z,97198.41
2023-05-16T16:45:09.649Z,97201.97
2023-05-16T16:47:12.470Z,97199.28
2023-05-16T16:49:15.218Z,97207.84
2023-05-16T16:51:19.181Z,97204.34
2023-05-16T16:53:21.768Z,97208.69
2023-05-16T16:55:24.382Z,97211.31
2023-05-16T16:57:27.222Z,97212.13
2023-05-16T16:59:29.963Z,97212.97
2023-05-16T17:01:32.859Z,97219.00
2023-05-16T17:03:36.134Z,97212.06
2023-05-16T17:05:38.976Z,97226.06
2023-05-16T17:07:44.364Z,97226.06
2023-05-16T17:09:47.070Z,97219.16
2023-05-16T17:11:49.829Z,97219.16
2023-05-16T17:13:54.571Z,97217.44
2023-05-16T17:15:57.543Z,97224.50
2023-05-16T17:18:00.262Z,97223.00
2023-05-16T17:20:07.315Z,97230.84
2023-05-16T17:22:10.123Z,97235.19
2023-05-16T17:24:14.190Z,97236.09
2023-05-16T17:26:17.265Z,97230.94
2023-05-16T17:28:20.039Z,97239.56
2023-05-16T17:30:23.452Z,97241.47
2023-05-16T17:32:26.569Z,97238.78
2023-05-16T17:34:29.568Z,97251.78
2023-05-16T17:36:32.300Z,97245.88
2023-05-16T17:38:35.364Z,97251.16
2023-05-16T17:40:39.306Z,97251.09
2023-05-16T17:42:41.885Z,97250.16
2023-05-16T17:44:44.491Z,97256.19
2023-05-16T17:46:47.152Z,97251.78
2023-05-16T17:48:50.016Z,97256.03
2023-05-16T17:50:52.618Z,97257.72
2023-05-16T17:52:55.494Z,97256.81
2023-05-16T17:54:59.036Z,97253.28
2023-05-16T17:57:02.976Z,97253.28
2023-05-16T17:59:05.890Z,97261.13
2023-05-16T18:01:10.227Z,97259.34
2023-05-16T18:03:13.592Z,97255.97
2023-05-16T18:05:17.028Z,97266.41
2023-05-16T18:07:20.531Z,97262.94
2023-05-16T18:09:23.391Z,97272.50
2023-05-16T18:11:26.093Z,97272.44
2023-05-16T18:13:30.876Z,97275.97
2023-05-16T18:15:35.323Z,97275.91
2023-05-16T18:17:38.209Z,97281.97
2023-05-16T18:19:40.993Z,97281.97
2023-05-16T18:21:44.861Z,97284.59
2023-05-16T18:23:48.528Z,97286.28
2023-05-16T18:25:51.768Z,97286.38
2023-05-16T18:27:54.441Z,97288.06
2023-05-16T18:29:58.487Z,97295.91
2023-05-16T18:32:01.128Z,97296.75
2023-05-16T18:34:03.801Z,97298.50
2023-05-16T18:36:06.796Z,97298.50
2023-05-16T18:38:17.429Z,97296.91
2023-05-16T18:40:31.386Z,97296.13
2023-05-16T18:42:33.969Z,97299.53
2023-05-16T18:44:36.745Z,97299.56
2023-05-16T18:46:40.757Z,97298.75
2023-05-16T18:48:43.387Z,97299.56
2023-05-16T18:50:47.539Z,97299.56
2023-05-16T18:52:57.290Z,97300.50
2023-05-16T18:54:59.928Z,97299.72
2023-05-16T18:57:03.508Z,97308.47
2023-05-16T18:59:06.626Z,97305.00
2023-05-16T19:01:09.487Z,97311.94
2023-05-16T19:03:13.926Z,97310.31
2023-05-16T19:05:16.718Z,97311.25
2023-05-16T19:07:19.587Z,97313.00
2023-05-16T19:09:22.251Z,97315.69
2023-05-16T19:11:24.874Z,97325.38
2023-05-16T19:13:27.497Z,97326.25
2023-05-16T19:15:30.185Z,97329.81
2023-05-16T19:17:33.045Z,97330.75
2023-05-16T19:19:37.193Z,97336.00
2023-05-16T19:21:40.412Z,97330.84
2023-05-16T19:23:43.022Z,97334.41
2023-05-16T19:25:48.943Z,97332.72
2023-05-16T19:27:52.087Z,97331.91
2023-05-16T19:29:54.710Z,97336.28
2023-05-16T19:31:57.397Z,97336.38
2023-05-16T19:34:00.030Z,97344.34
2023-05-16T19:36:05.874Z,97344.38
2023-05-16T19:38:08.470Z,97354.03
2023-05-16T19:40:12.739Z,97350.53
2023-05-16T19:42:16.325Z,97351.53
2023-05-16T19:44:18.938Z,97362.00
2023-05-16T19:46:21.719Z,97362.91
2023-05-16T19:48:24.432Z,97365.59
2023-05-16T19:50:27.282Z,97359.50
2023-05-16T19:52:31.278Z,97367.34
2023-05-16T19:54:33.869Z,97370.22
2023-05-16T19:56:39.286Z,97369.38
2023-05-16T19:58:43.734Z,97365.06
2023-05-16T20:00:47.020Z,97363.28
2023-05-16T20:02:49.775Z,97368.53
2023-05-16T20:04:52.520Z,97369.41
2023-05-16T20:06:55.127Z,97365.94
2023-05-16T20:08:59.084Z,97386.00
2023-05-16T20:11:01.695Z,97381.69
2023-05-16T20:13:04.350Z,97380.00
2023-05-16T20:15:08.835Z,97381.75
2023-05-16T20:17:11.456Z,97387.28
2023-05-16T20:19:15.319Z,97382.91
2023-05-16T20:21:18.079Z,97395.13
2023-05-16T20:23:21.465Z,97390.88
2023-05-16T20:25:25.760Z,97392.66
2023-05-16T20:27:29.741Z,97391.78
2023-05-16T20:29:34.613Z,97392.72
2023-05-16T20:31:37.396Z,97391.84
2023-05-16T20:33:40.053Z,97403.16
2023-05-16T20:35:42.658Z,97404.09
2023-05-16T20:37:45.254Z,97402.44
2023-05-16T20:39:47.831Z,97411.97
2023-05-16T20:41:51.786Z,97416.38
2023-05-16T20:43:54.404Z,97416.44
2023-05-16T20:45:56.993Z,97413.88
2023-05-16T20:47:59.711Z,97417.38
2023-05-16T20:50:02.407Z,97421.75
2023-05-16T20:52:05.609Z,97414.84
2023-05-16T20:54:08.193Z,97418.31
2023-05-16T20:56:10.770Z,97419.22
2023-05-16T20:58:15.472Z,97417.53
2023-05-16T21:00:18.481Z,97420.13
2023-05-16T21:02:21.053Z,97417.59
2023-05-16T21:04:23.928Z,97418.38
2023-05-16T21:06:26.661Z,97421.03
2023-05-16T21:08:29.259Z,97421.88
2023-05-16T21:10:31.897Z,97419.28
2023-05-16T21:12:34.534Z,97422.75
2023-05-16T21:14:38.510Z,97429.72
2023-05-16T21:16:43.405Z,97427.97
2023-05-16T21:18:46.134Z,97434.94
2023-05-16T21:20:48.892Z,97434.09
2023-05-16T21:22:51.512Z,97437.63
2023-05-16T21:24:54.143Z,97436.78
2023-05-16T21:26:56.828Z,97440.31
2023-05-16T21:28:59.458Z,97440.38
2023-05-16T21:31:03.427Z,97443.88
2023-05-16T21:33:06.284Z,97444.75
2023-05-16T21:35:09.621Z,97452.63
2023-05-16T21:37:12.662Z,97450.09
2023-05-16T21:39:15.279Z,97450.16
2023-05-16T21:41:18.138Z,97451.03
2023-05-16T21:43:20.901Z,97460.66
2023-05-16T21:45:23.640Z,97461.50
2023-05-16T21:47:27.606Z,97458.09
2023-05-16T21:49:30.233Z,97455.53
2023-05-16T21:51:32.836Z,97461.75
2023-05-16T21:53:35.462Z,97459.28
2023-05-16T21:55:38.046Z,97463.63
2023-05-16T21:57:40.927Z,97460.09
2023-05-16T21:59:43.523Z,97458.41
2023-05-16T22:01:46.109Z,97467.13
2023-05-16T22:03:50.422Z,97460.16
2023-05-16T22:05:53.199Z,97459.38
2023-05-16T22:07:55.887Z,97472.47
2023-05-16T22:09:59.307Z,97465.50
2023-05-16T22:12:01.882Z,97468.19
2023-05-16T22:14:04.512Z,97466.47
2023-05-16T22:16:07.761Z,97470.06
2023-05-16T22:18:10.464Z,97472.97
2023-05-16T22:20:14.689Z,97471.31
2023-05-16T22:22:17.406Z,97462.69
2023-05-16T22:24:20.011Z,97474.09
2023-05-16T22:26:22.638Z,97471.53
2023-05-16T22:28:25.220Z,97465.59
2023-05-16T22:30:27.817Z,97467.53
2023-05-16T22:32:30.617Z,97474.13
2023-05-16T22:34:33.397Z,97468.97
2023-05-16T22:36:37.361Z,97478.66
2023-05-16T22:38:39.960Z,97467.63
2023-05-16T22:40:42.539Z,97474.75
2023-05-16T22:42:45.166Z,97471.34
2023-05-16T22:44:47.773Z,97474.84
2023-05-16T22:46:50.469Z,97470.53
2023-05-16T22:48:53.159Z,97473.94
2023-05-16T22:50:55.898Z,97477.50
2023-05-16T22:52:59.867Z,97479.28
2023-05-16T22:55:02.459Z,97479.22
2023-05-16T22:57:05.405Z,97482.94
2023-05-16T22:59:08.016Z,97486.59
2023-05-16T23:01:10.651Z,97487.53
2023-05-16T23:03:13.309Z,97493.72
2023-05-16T23:05:16.012Z,97497.53
2023-05-16T23:07:18.740Z,97498.75
2023-05-16T23:09:22.709Z,97499.44
2023-05-16T23:11:25.331Z,97502.84
2023-05-16T23:13:28.109Z,97506.72
2023-05-16T23:15:30.949Z,97513.53
2023-05-16T23:17:33.754Z,97510.72
2023-05-16T23:19:36.449Z,97514.19
2023-05-16T23:21:39.979Z,97520.38
2023-05-16T23:23:42.658Z,97519.47
2023-05-16T23:25:48.577Z,97515.00
2023-05-16T23:27:51.204Z,97519.47
2023-05-16T23:29:53.910Z,97520.38
2023-05-16T23:31:56.550Z,97514.31
2023-05-16T23:33:59.280Z,97517.78
2023-05-16T23:36:01.930Z,97526.41
2023-05-16T23:38:04.515Z,97528.94
2023-05-16T23:40:08.542Z,97526.28
2023-05-16T23:42:12.767Z,97539.50
2023-05-16T23:44:15.350Z,97526.47
2023-05-16T23:46:18.002Z,97536.00
2023-05-16T23:48:20.689Z,97537.63
2023-05-16T23:50:23.688Z,97533.25
2023-05-16T23:52:26.364Z,97535.91
2023-05-16T23:54:29.039Z,97535.03
2023-05-16T23:56:32.942Z,97544.94
2023-05-16T23:58:36.900Z,97542.50
